sensor_id;sensor_type;location;lat;lon;timestamp;P1;durP1;ratioP1;P2;durP2;ratioP2
1020;SDS011;499;42.648;23.270;2022-09-29T00:00:12;1.20;;;0.80;;
1020;SDS011;499;42.648;23.270;2022-09-29T00:02:41;1.33;;;0.90;;
1020;SDS011;499;42.648;23.270;2022-09-29T00:05:08;1.20;;;0.83;;
1020;SDS011;499;42.648;23.270;2022-09-29T00:07:36;1.23;;;1.10;;
1020;SDS011;499;42.648;23.270;2022-09-29T00:10:03;1.20;;;0.80;;
1020;SDS011;499;42.648;23.270;2022-09-29T00:12:31;0.90;;;0.60;;
1020;SDS011;499;42.648;23.270;2022-09-29T00:14:58;1.30;;;0.93;;
1020;SDS011;499;42.648;23.270;2022-09-29T00:17:25;0.93;;;0.70;;
1020;SDS011;499;42.648;23.270;2022-09-29T00:19:54;1.10;;;0.90;;
1020;SDS011;499;42.648;23.270;2022-09-29T00:22:21;1.33;;;1.23;;
1020;SDS011;499;42.648;23.270;2022-09-29T00:24:48;1.33;;;0.80;;
1020;SDS011;499;42.648;23.270;2022-09-29T00:27:16;1.10;;;0.80;;
1020;SDS011;499;42.648;23.270;2022-09-29T00:29:44;1.20;;;1.00;;
1020;SDS011;499;42.648;23.270;2022-09-29T00:32:12;1.10;;;0.90;;
1020;SDS011;499;42.648;23.270;2022-09-29T00:34:40;1.47;;;0.80;;
1020;SDS011;499;42.648;23.270;2022-09-29T00:37:10;1.50;;;1.00;;
1020;SDS011;499;42.648;23.270;2022-09-29T00:39:37;1.30;;;1.10;;
1020;SDS011;499;42.648;23.270;2022-09-29T00:42:05;1.17;;;0.90;;
1020;SDS011;499;42.648;23.270;2022-09-29T00:44:53;1.47;;;1.30;;
1020;SDS011;499;42.648;23.270;2022-09-29T00:47:29;1.60;;;1.13;;
1020;SDS011;499;42.648;23.270;2022-09-29T00:50:01;1.37;;;0.90;;
1020;SDS011;499;42.648;23.270;2022-09-29T00:52:33;1.37;;;1.00;;
1020;SDS011;499;42.648;23.270;2022-09-29T00:55:04;4.20;;;1.27;;
1020;SDS011;499;42.648;23.270;2022-09-29T00:57:35;1.33;;;1.10;;
1020;SDS011;499;42.648;23.270;2022-09-29T01:00:07;1.20;;;1.00;;
1020;SDS011;499;42.648;23.270;2022-09-29T01:02:37;1.03;;;0.90;;
1020;SDS011;499;42.648;23.270;2022-09-29T01:05:10;1.57;;;0.90;;
1020;SDS011;499;42.648;23.270;2022-09-29T01:07:42;1.00;;;0.80;;
1020;SDS011;499;42.648;23.270;2022-09-29T01:10:10;1.20;;;1.00;;
1020;SDS011;499;42.648;23.270;2022-09-29T01:12:39;1.73;;;0.87;;
1020;SDS011;499;42.648;23.270;2022-09-29T01:15:07;1.10;;;0.87;;
1020;SDS011;499;42.648;23.270;2022-09-29T01:17:34;1.40;;;0.83;;
1020;SDS011;499;42.648;23.270;2022-09-29T01:20:04;1.07;;;0.80;;
1020;SDS011;499;42.648;23.270;2022-09-29T01:25:41;1.40;;;0.80;;
1020;SDS011;499;42.648;23.270;2022-09-29T01:31:29;0.90;;;0.73;;
1020;SDS011;499;42.648;23.270;2022-09-29T01:34:05;1.00;;;0.90;;
1020;SDS011;499;42.648;23.270;2022-09-29T01:36:41;1.00;;;0.80;;
1020;SDS011;499;42.648;23.270;2022-09-29T01:39:17;0.87;;;0.70;;
1020;SDS011;499;42.648;23.270;2022-09-29T01:41:52;1.40;;;0.73;;
1020;SDS011;499;42.648;23.270;2022-09-29T01:44:25;1.10;;;0.90;;
1020;SDS011;499;42.648;23.270;2022-09-29T01:46:58;1.00;;;0.70;;
1020;SDS011;499;42.648;23.270;2022-09-29T01:49:31;1.07;;;0.87;;
1020;SDS011;499;42.648;23.270;2022-09-29T01:52:05;1.07;;;0.80;;
1020;SDS011;499;42.648;23.270;2022-09-29T01:54:42;1.20;;;0.80;;
1020;SDS011;499;42.648;23.270;2022-09-29T01:57:13;1.30;;;0.90;;
1020;SDS011;499;42.648;23.270;2022-09-29T01:59:44;1.07;;;0.97;;
1020;SDS011;499;42.648;23.270;2022-09-29T02:02:17;1.40;;;0.90;;
1020;SDS011;499;42.648;23.270;2022-09-29T02:04:52;1.40;;;1.20;;
1020;SDS011;499;42.648;23.270;2022-09-29T02:07:25;1.00;;;0.90;;
1020;SDS011;499;42.648;23.270;2022-09-29T02:09:57;1.20;;;0.83;;
1020;SDS011;499;42.648;23.270;2022-09-29T02:12:28;1.33;;;1.23;;
1020;SDS011;499;42.648;23.270;2022-09-29T02:15:00;1.23;;;1.00;;
1020;SDS011;499;42.648;23.270;2022-09-29T02:17:33;1.00;;;0.70;;
1020;SDS011;499;42.648;23.270;2022-09-29T02:20:04;1.20;;;0.93;;
1020;SDS011;499;42.648;23.270;2022-09-29T02:22:33;1.00;;;0.70;;
1020;SDS011;499;42.648;23.270;2022-09-29T02:25:01;1.20;;;1.00;;
1020;SDS011;499;42.648;23.270;2022-09-29T02:27:29;1.20;;;1.07;;
1020;SDS011;499;42.648;23.270;2022-09-29T02:29:58;1.47;;;1.10;;
1020;SDS011;499;42.648;23.270;2022-09-29T02:32:25;1.60;;;1.20;;
1020;SDS011;499;42.648;23.270;2022-09-29T02:34:54;1.80;;;1.30;;
1020;SDS011;499;42.648;23.270;2022-09-29T02:40:27;1.23;;;0.90;;
1020;SDS011;499;42.648;23.270;2022-09-29T02:43:14;1.60;;;1.07;;
1020;SDS011;499;42.648;23.270;2022-09-29T02:45:54;1.00;;;0.90;;
1020;SDS011;499;42.648;23.270;2022-09-29T02:48:40;1.30;;;1.00;;
1020;SDS011;499;42.648;23.270;2022-09-29T02:51:23;1.20;;;1.00;;
1020;SDS011;499;42.648;23.270;2022-09-29T02:53:58;1.00;;;0.90;;
1020;SDS011;499;42.648;23.270;2022-09-29T02:56:37;1.10;;;0.87;;
1020;SDS011;499;42.648;23.270;2022-09-29T02:59:11;1.10;;;1.00;;
1020;SDS011;499;42.648;23.270;2022-09-29T03:01:48;1.40;;;1.30;;
1020;SDS011;499;42.648;23.270;2022-09-29T03:04:17;1.07;;;0.93;;
1020;SDS011;499;42.648;23.270;2022-09-29T03:06:47;1.60;;;1.23;;
1020;SDS011;499;42.648;23.270;2022-09-29T03:09:15;1.30;;;1.00;;
1020;SDS011;499;42.648;23.270;2022-09-29T03:11:42;1.10;;;0.90;;
1020;SDS011;499;42.648;23.270;2022-09-29T03:14:10;1.17;;;1.07;;
1020;SDS011;499;42.648;23.270;2022-09-29T03:16:37;1.50;;;1.20;;
1020;SDS011;499;42.648;23.270;2022-09-29T03:19:07;1.30;;;1.20;;
1020;SDS011;499;42.648;23.270;2022-09-29T03:21:34;1.30;;;1.00;;
1020;SDS011;499;42.648;23.270;2022-09-29T03:24:03;1.40;;;1.30;;
1020;SDS011;499;42.648;23.270;2022-09-29T03:26:30;1.80;;;1.43;;
1020;SDS011;499;42.648;23.270;2022-09-29T03:28:58;2.13;;;1.93;;
1020;SDS011;499;42.648;23.270;2022-09-29T03:31:25;1.60;;;1.37;;
1020;SDS011;499;42.648;23.270;2022-09-29T03:33:52;1.10;;;0.90;;
1020;SDS011;499;42.648;23.270;2022-09-29T03:36:20;1.90;;;1.50;;
1020;SDS011;499;42.648;23.270;2022-09-29T03:38:47;1.90;;;1.20;;
1020;SDS011;499;42.648;23.270;2022-09-29T03:41:15;1.33;;;1.10;;
1020;SDS011;499;42.648;23.270;2022-09-29T03:43:42;1.40;;;1.17;;
1020;SDS011;499;42.648;23.270;2022-09-29T03:46:10;1.40;;;1.30;;
1020;SDS011;499;42.648;23.270;2022-09-29T03:48:37;1.40;;;1.30;;
1020;SDS011;499;42.648;23.270;2022-09-29T03:51:05;1.50;;;1.20;;
1020;SDS011;499;42.648;23.270;2022-09-29T03:53:33;1.27;;;1.17;;
1020;SDS011;499;42.648;23.270;2022-09-29T03:56:00;1.33;;;0.93;;
1020;SDS011;499;42.648;23.270;2022-09-29T03:58:30;1.80;;;1.40;;
1020;SDS011;499;42.648;23.270;2022-09-29T04:00:59;1.20;;;1.07;;
1020;SDS011;499;42.648;23.270;2022-09-29T04:03:26;2.87;;;1.47;;
1020;SDS011;499;42.648;23.270;2022-09-29T04:05:54;1.97;;;1.77;;
1020;SDS011;499;42.648;23.270;2022-09-29T04:08:21;1.30;;;1.20;;
1020;SDS011;499;42.648;23.270;2022-09-29T04:10:48;1.80;;;1.33;;
1020;SDS011;499;42.648;23.270;2022-09-29T04:13:15;1.40;;;1.30;;
1020;SDS011;499;42.648;23.270;2022-09-29T04:15:44;1.77;;;1.20;;
1020;SDS011;499;42.648;23.270;2022-09-29T04:18:11;1.33;;;1.07;;
1020;SDS011;499;42.648;23.270;2022-09-29T04:20:38;2.27;;;2.10;;
1020;SDS011;499;42.648;23.270;2022-09-29T04:23:06;1.50;;;1.37;;
1020;SDS011;499;42.648;23.270;2022-09-29T04:25:33;2.00;;;1.80;;
1020;SDS011;499;42.648;23.270;2022-09-29T04:28:00;1.30;;;1.20;;
1020;SDS011;499;42.648;23.270;2022-09-29T04:30:27;1.53;;;1.43;;
1020;SDS011;499;42.648;23.270;2022-09-29T04:32:56;1.87;;;1.50;;
1020;SDS011;499;42.648;23.270;2022-09-29T04:35:23;1.80;;;1.60;;
1020;SDS011;499;42.648;23.270;2022-09-29T04:37:53;1.40;;;1.30;;
1020;SDS011;499;42.648;23.270;2022-09-29T04:40:23;1.63;;;1.53;;
1020;SDS011;499;42.648;23.270;2022-09-29T04:42:51;1.17;;;1.03;;
1020;SDS011;499;42.648;23.270;2022-09-29T04:45:18;1.43;;;1.30;;
1020;SDS011;499;42.648;23.270;2022-09-29T04:47:45;1.47;;;1.30;;
1020;SDS011;499;42.648;23.270;2022-09-29T04:50:14;1.60;;;1.30;;
1020;SDS011;499;42.648;23.270;2022-09-29T04:52:41;1.03;;;0.90;;
1020;SDS011;499;42.648;23.270;2022-09-29T04:55:09;1.70;;;1.20;;
1020;SDS011;499;42.648;23.270;2022-09-29T04:57:37;1.93;;;1.73;;
1020;SDS011;499;42.648;23.270;2022-09-29T05:00:04;1.20;;;1.10;;
1020;SDS011;499;42.648;23.270;2022-09-29T05:02:33;1.37;;;1.27;;
1020;SDS011;499;42.648;23.270;2022-09-29T05:05:00;1.30;;;1.00;;
1020;SDS011;499;42.648;23.270;2022-09-29T05:07:29;1.67;;;1.30;;
1020;SDS011;499;42.648;23.270;2022-09-29T05:09:56;1.30;;;1.20;;
1020;SDS011;499;42.648;23.270;2022-09-29T05:12:23;1.20;;;0.90;;
1020;SDS011;499;42.648;23.270;2022-09-29T05:14:50;1.27;;;1.17;;
1020;SDS011;499;42.648;23.270;2022-09-29T05:17:17;1.37;;;1.17;;
1020;SDS011;499;42.648;23.270;2022-09-29T05:19:45;1.07;;;0.80;;
1020;SDS011;499;42.648;23.270;2022-09-29T05:22:12;1.77;;;1.40;;
1020;SDS011;499;42.648;23.270;2022-09-29T05:24:40;1.80;;;1.33;;
1020;SDS011;499;42.648;23.270;2022-09-29T05:27:07;1.80;;;1.60;;
1020;SDS011;499;42.648;23.270;2022-09-29T05:29:35;1.80;;;1.30;;
1020;SDS011;499;42.648;23.270;2022-09-29T05:32:02;3.20;;;1.50;;
1020;SDS011;499;42.648;23.270;2022-09-29T05:34:29;2.67;;;1.80;;
1020;SDS011;499;42.648;23.270;2022-09-29T05:36:56;2.00;;;1.50;;
1020;SDS011;499;42.648;23.270;2022-09-29T05:39:23;2.43;;;2.07;;
1020;SDS011;499;42.648;23.270;2022-09-29T05:41:51;1.73;;;1.63;;
1020;SDS011;499;42.648;23.270;2022-09-29T05:44:18;2.07;;;1.70;;
1020;SDS011;499;42.648;23.270;2022-09-29T05:46:45;2.23;;;2.00;;
1020;SDS011;499;42.648;23.270;2022-09-29T05:49:12;2.10;;;1.83;;
1020;SDS011;499;42.648;23.270;2022-09-29T05:51:39;2.27;;;1.70;;
1020;SDS011;499;42.648;23.270;2022-09-29T05:54:06;1.60;;;1.43;;
1020;SDS011;499;42.648;23.270;2022-09-29T05:56:33;1.80;;;1.50;;
1020;SDS011;499;42.648;23.270;2022-09-29T05:59:02;1.17;;;0.83;;
1020;SDS011;499;42.648;23.270;2022-09-29T06:01:30;1.50;;;1.20;;
1020;SDS011;499;42.648;23.270;2022-09-29T06:03:58;1.40;;;1.10;;
1020;SDS011;499;42.648;23.270;2022-09-29T06:06:26;1.50;;;1.40;;
1020;SDS011;499;42.648;23.270;2022-09-29T06:08:55;1.33;;;1.10;;
1020;SDS011;499;42.648;23.270;2022-09-29T06:11:23;3.53;;;2.10;;
1020;SDS011;499;42.648;23.270;2022-09-29T06:13:52;2.40;;;1.77;;
1020;SDS011;499;42.648;23.270;2022-09-29T06:16:23;1.57;;;1.20;;
1020;SDS011;499;42.648;23.270;2022-09-29T06:18:51;1.90;;;1.77;;
1020;SDS011;499;42.648;23.270;2022-09-29T06:21:20;1.83;;;1.70;;
1020;SDS011;499;42.648;23.270;2022-09-29T06:23:48;1.47;;;1.37;;
1020;SDS011;499;42.648;23.270;2022-09-29T06:26:17;4.50;;;2.30;;
1020;SDS011;499;42.648;23.270;2022-09-29T06:28:45;1.47;;;1.13;;
1020;SDS011;499;42.648;23.270;2022-09-29T06:31:13;1.40;;;1.00;;
1020;SDS011;499;42.648;23.270;2022-09-29T06:33:42;1.30;;;1.20;;
1020;SDS011;499;42.648;23.270;2022-09-29T06:36:11;1.63;;;1.17;;
1020;SDS011;499;42.648;23.270;2022-09-29T06:39:00;1.87;;;1.13;;
1020;SDS011;499;42.648;23.270;2022-09-29T06:41:27;1.13;;;0.73;;
1020;SDS011;499;42.648;23.270;2022-09-29T06:43:55;1.43;;;0.80;;
1020;SDS011;499;42.648;23.270;2022-09-29T06:46:22;1.37;;;1.00;;
1020;SDS011;499;42.648;23.270;2022-09-29T06:48:52;1.10;;;0.80;;
1020;SDS011;499;42.648;23.270;2022-09-29T06:51:20;1.27;;;1.00;;
1020;SDS011;499;42.648;23.270;2022-09-29T06:53:47;1.50;;;1.17;;
1020;SDS011;499;42.648;23.270;2022-09-29T06:56:15;1.87;;;1.07;;
1020;SDS011;499;42.648;23.270;2022-09-29T06:58:43;1.50;;;1.07;;
1020;SDS011;499;42.648;23.270;2022-09-29T07:01:11;1.20;;;0.80;;
1020;SDS011;499;42.648;23.270;2022-09-29T07:03:39;1.53;;;1.13;;
1020;SDS011;499;42.648;23.270;2022-09-29T07:06:08;1.40;;;1.13;;
1020;SDS011;499;42.648;23.270;2022-09-29T07:08:36;1.60;;;1.00;;
1020;SDS011;499;42.648;23.270;2022-09-29T07:11:04;1.87;;;0.80;;
1020;SDS011;499;42.648;23.270;2022-09-29T07:13:31;0.90;;;0.50;;
1020;SDS011;499;42.648;23.270;2022-09-29T07:16:03;1.40;;;0.97;;
1020;SDS011;499;42.648;23.270;2022-09-29T07:18:36;1.27;;;0.80;;
1020;SDS011;499;42.648;23.270;2022-09-29T07:21:05;1.50;;;1.17;;
1020;SDS011;499;42.648;23.270;2022-09-29T07:23:36;1.47;;;0.97;;
1020;SDS011;499;42.648;23.270;2022-09-29T07:26:05;1.97;;;1.43;;
1020;SDS011;499;42.648;23.270;2022-09-29T07:28:33;1.80;;;1.13;;
1020;SDS011;499;42.648;23.270;2022-09-29T07:31:01;1.30;;;0.97;;
1020;SDS011;499;42.648;23.270;2022-09-29T07:33:30;1.57;;;1.47;;
1020;SDS011;499;42.648;23.270;2022-09-29T07:35:57;1.20;;;0.93;;
1020;SDS011;499;42.648;23.270;2022-09-29T07:38:26;1.70;;;1.17;;
1020;SDS011;499;42.648;23.270;2022-09-29T07:40:53;1.30;;;1.00;;
1020;SDS011;499;42.648;23.270;2022-09-29T07:43:24;1.40;;;1.10;;
1020;SDS011;499;42.648;23.270;2022-09-29T07:45:51;1.40;;;1.10;;
1020;SDS011;499;42.648;23.270;2022-09-29T07:48:18;1.70;;;1.30;;
1020;SDS011;499;42.648;23.270;2022-09-29T07:50:45;2.27;;;1.17;;
1020;SDS011;499;42.648;23.270;2022-09-29T07:53:12;1.30;;;1.10;;
1020;SDS011;499;42.648;23.270;2022-09-29T07:55:41;1.30;;;0.90;;
1020;SDS011;499;42.648;23.270;2022-09-29T07:58:08;1.97;;;1.50;;
1020;SDS011;499;42.648;23.270;2022-09-29T08:00:36;1.17;;;0.90;;
1020;SDS011;499;42.648;23.270;2022-09-29T08:03:03;2.50;;;1.03;;
1020;SDS011;499;42.648;23.270;2022-09-29T08:05:32;1.73;;;1.30;;
1020;SDS011;499;42.648;23.270;2022-09-29T08:08:00;1.83;;;1.57;;
1020;SDS011;499;42.648;23.270;2022-09-29T08:10:28;2.60;;;2.00;;
1020;SDS011;499;42.648;23.270;2022-09-29T08:12:58;1.37;;;0.97;;
1020;SDS011;499;42.648;23.270;2022-09-29T08:15:25;2.00;;;1.20;;
1020;SDS011;499;42.648;23.270;2022-09-29T08:17:52;1.63;;;1.10;;
1020;SDS011;499;42.648;23.270;2022-09-29T08:20:21;2.00;;;1.20;;
1020;SDS011;499;42.648;23.270;2022-09-29T08:22:48;1.17;;;0.80;;
1020;SDS011;499;42.648;23.270;2022-09-29T08:25:16;2.67;;;1.20;;
1020;SDS011;499;42.648;23.270;2022-09-29T08:27:43;2.13;;;1.40;;
1020;SDS011;499;42.648;23.270;2022-09-29T08:30:12;1.10;;;0.70;;
1020;SDS011;499;42.648;23.270;2022-09-29T08:32:39;1.60;;;1.00;;
1020;SDS011;499;42.648;23.270;2022-09-29T08:35:07;1.20;;;0.80;;
1020;SDS011;499;42.648;23.270;2022-09-29T08:37:34;2.57;;;1.40;;
1020;SDS011;499;42.648;23.270;2022-09-29T08:40:03;2.20;;;1.80;;
1020;SDS011;499;42.648;23.270;2022-09-29T08:42:34;1.60;;;1.00;;
1020;SDS011;499;42.648;23.270;2022-09-29T08:45:17;1.63;;;0.90;;
1020;SDS011;499;42.648;23.270;2022-09-29T08:47:50;1.43;;;0.73;;
1020;SDS011;499;42.648;23.270;2022-09-29T08:50:22;1.30;;;0.60;;
1020;SDS011;499;42.648;23.270;2022-09-29T08:52:54;1.23;;;0.53;;
1020;SDS011;499;42.648;23.270;2022-09-29T08:55:26;1.50;;;0.63;;
1020;SDS011;499;42.648;23.270;2022-09-29T08:58:00;1.10;;;0.57;;
1020;SDS011;499;42.648;23.270;2022-09-29T09:00:32;0.90;;;0.50;;
1020;SDS011;499;42.648;23.270;2022-09-29T09:03:10;1.17;;;0.60;;
1020;SDS011;499;42.648;23.270;2022-09-29T09:05:55;0.90;;;0.43;;
1020;SDS011;499;42.648;23.270;2022-09-29T09:08:36;1.00;;;0.63;;
1020;SDS011;499;42.648;23.270;2022-09-29T09:11:19;0.90;;;0.40;;
1020;SDS011;499;42.648;23.270;2022-09-29T09:14:02;1.00;;;0.60;;
1020;SDS011;499;42.648;23.270;2022-09-29T09:16:42;1.40;;;1.00;;
1020;SDS011;499;42.648;23.270;2022-09-29T09:19:23;1.63;;;0.80;;
1020;SDS011;499;42.648;23.270;2022-09-29T09:22:13;1.23;;;0.67;;
1020;SDS011;499;42.648;23.270;2022-09-29T09:24:47;1.40;;;0.70;;
1020;SDS011;499;42.648;23.270;2022-09-29T09:27:21;1.00;;;0.50;;
1020;SDS011;499;42.648;23.270;2022-09-29T09:29:54;1.40;;;0.90;;
1020;SDS011;499;42.648;23.270;2022-09-29T09:32:40;1.00;;;0.47;;
1020;SDS011;499;42.648;23.270;2022-09-29T09:35:23;1.20;;;0.70;;
1020;SDS011;499;42.648;23.270;2022-09-29T09:37:57;1.20;;;0.60;;
1020;SDS011;499;42.648;23.270;2022-09-29T09:40:28;1.20;;;0.70;;
1020;SDS011;499;42.648;23.270;2022-09-29T09:43:04;1.10;;;0.70;;
1020;SDS011;499;42.648;23.270;2022-09-29T09:45:35;1.30;;;0.80;;
1020;SDS011;499;42.648;23.270;2022-09-29T09:48:11;1.00;;;0.60;;
1020;SDS011;499;42.648;23.270;2022-09-29T09:50:40;0.90;;;0.40;;
1020;SDS011;499;42.648;23.270;2022-09-29T09:53:12;1.20;;;0.70;;
1020;SDS011;499;42.648;23.270;2022-09-29T09:55:45;1.20;;;0.60;;
1020;SDS011;499;42.648;23.270;2022-09-29T09:58:24;1.10;;;0.57;;
1020;SDS011;499;42.648;23.270;2022-09-29T10:01:00;1.00;;;0.63;;
1020;SDS011;499;42.648;23.270;2022-09-29T10:03:30;1.10;;;0.60;;
1020;SDS011;499;42.648;23.270;2022-09-29T10:09:19;1.00;;;0.60;;
1020;SDS011;499;42.648;23.270;2022-09-29T10:11:46;1.20;;;0.83;;
1020;SDS011;499;42.648;23.270;2022-09-29T10:14:14;1.57;;;0.90;;
1020;SDS011;499;42.648;23.270;2022-09-29T10:16:47;1.07;;;0.70;;
1020;SDS011;499;42.648;23.270;2022-09-29T10:19:21;1.33;;;0.80;;
1020;SDS011;499;42.648;23.270;2022-09-29T10:21:48;1.10;;;0.60;;
1020;SDS011;499;42.648;23.270;2022-09-29T10:24:20;1.43;;;0.83;;
1020;SDS011;499;42.648;23.270;2022-09-29T10:26:50;1.37;;;0.90;;
1020;SDS011;499;42.648;23.270;2022-09-29T10:29:24;1.20;;;0.60;;
1020;SDS011;499;42.648;23.270;2022-09-29T10:32:00;1.20;;;0.80;;
1020;SDS011;499;42.648;23.270;2022-09-29T10:34:32;1.27;;;0.70;;
1020;SDS011;499;42.648;23.270;2022-09-29T10:37:02;1.20;;;0.70;;
1020;SDS011;499;42.648;23.270;2022-09-29T10:39:32;1.10;;;0.77;;
1020;SDS011;499;42.648;23.270;2022-09-29T10:42:14;0.90;;;0.40;;
1020;SDS011;499;42.648;23.270;2022-09-29T10:44:48;1.20;;;0.70;;
1020;SDS011;499;42.648;23.270;2022-09-29T10:47:16;1.10;;;0.60;;
1020;SDS011;499;42.648;23.270;2022-09-29T10:49:48;1.10;;;0.60;;
1020;SDS011;499;42.648;23.270;2022-09-29T10:52:37;1.10;;;0.50;;
1020;SDS011;499;42.648;23.270;2022-09-29T10:55:14;1.07;;;0.50;;
1020;SDS011;499;42.648;23.270;2022-09-29T10:57:43;1.10;;;0.50;;
1020;SDS011;499;42.648;23.270;2022-09-29T11:00:28;1.20;;;0.80;;
1020;SDS011;499;42.648;23.270;2022-09-29T11:03:04;1.27;;;0.63;;
1020;SDS011;499;42.648;23.270;2022-09-29T11:05:34;1.10;;;0.57;;
1020;SDS011;499;42.648;23.270;2022-09-29T11:08:02;1.40;;;0.70;;
1020;SDS011;499;42.648;23.270;2022-09-29T11:10:31;1.03;;;0.50;;
1020;SDS011;499;42.648;23.270;2022-09-29T11:13:05;1.23;;;0.57;;
1020;SDS011;499;42.648;23.270;2022-09-29T11:16:02;1.10;;;0.70;;
1020;SDS011;499;42.648;23.270;2022-09-29T11:18:31;1.40;;;0.73;;
1020;SDS011;499;42.648;23.270;2022-09-29T11:21:20;1.53;;;0.57;;
1020;SDS011;499;42.648;23.270;2022-09-29T11:24:09;1.10;;;0.50;;
1020;SDS011;499;42.648;23.270;2022-09-29T11:26:41;1.73;;;1.07;;
1020;SDS011;499;42.648;23.270;2022-09-29T11:29:19;1.30;;;0.70;;
1020;SDS011;499;42.648;23.270;2022-09-29T11:31:59;1.00;;;0.57;;
1020;SDS011;499;42.648;23.270;2022-09-29T11:34:44;0.90;;;0.50;;
1020;SDS011;499;42.648;23.270;2022-09-29T11:37:30;1.00;;;0.40;;
1020;SDS011;499;42.648;23.270;2022-09-29T11:40:16;1.20;;;0.60;;
1020;SDS011;499;42.648;23.270;2022-09-29T11:43:00;1.23;;;0.60;;
1020;SDS011;499;42.648;23.270;2022-09-29T11:45:40;1.00;;;0.50;;
1020;SDS011;499;42.648;23.270;2022-09-29T11:48:19;1.10;;;0.60;;
1020;SDS011;499;42.648;23.270;2022-09-29T11:51:04;1.43;;;0.53;;
1020;SDS011;499;42.648;23.270;2022-09-29T11:53:52;1.00;;;0.50;;
1020;SDS011;499;42.648;23.270;2022-09-29T11:56:34;1.20;;;0.70;;
1020;SDS011;499;42.648;23.270;2022-09-29T11:59:12;0.97;;;0.53;;
1020;SDS011;499;42.648;23.270;2022-09-29T12:01:53;1.40;;;0.80;;
1020;SDS011;499;42.648;23.270;2022-09-29T12:04:37;1.30;;;0.63;;
1020;SDS011;499;42.648;23.270;2022-09-29T12:07:14;1.00;;;0.40;;
1020;SDS011;499;42.648;23.270;2022-09-29T12:13:16;1.13;;;0.50;;
1020;SDS011;499;42.648;23.270;2022-09-29T12:15:50;1.00;;;0.50;;
1020;SDS011;499;42.648;23.270;2022-09-29T12:18:22;1.00;;;0.50;;
1020;SDS011;499;42.648;23.270;2022-09-29T12:20:56;1.30;;;0.60;;
1020;SDS011;499;42.648;23.270;2022-09-29T12:23:25;1.20;;;0.63;;
1020;SDS011;499;42.648;23.270;2022-09-29T12:25:56;1.00;;;0.40;;
1020;SDS011;499;42.648;23.270;2022-09-29T12:28:29;1.00;;;0.50;;
1020;SDS011;499;42.648;23.270;2022-09-29T12:31:03;1.20;;;0.57;;
1020;SDS011;499;42.648;23.270;2022-09-29T12:33:36;1.17;;;0.50;;
1020;SDS011;499;42.648;23.270;2022-09-29T12:36:13;1.00;;;0.50;;
1020;SDS011;499;42.648;23.270;2022-09-29T12:39:09;1.00;;;0.50;;
1020;SDS011;499;42.648;23.270;2022-09-29T12:41:48;1.33;;;0.67;;
1020;SDS011;499;42.648;23.270;2022-09-29T12:44:23;1.10;;;0.50;;
1020;SDS011;499;42.648;23.270;2022-09-29T12:46:56;1.00;;;0.50;;
1020;SDS011;499;42.648;23.270;2022-09-29T12:49:30;1.20;;;0.80;;
1020;SDS011;499;42.648;23.270;2022-09-29T12:52:04;0.90;;;0.30;;
1020;SDS011;499;42.648;23.270;2022-09-29T12:54:39;0.90;;;0.40;;
1020;SDS011;499;42.648;23.270;2022-09-29T12:57:11;1.20;;;0.50;;
1020;SDS011;499;42.648;23.270;2022-09-29T12:59:43;1.43;;;0.70;;
1020;SDS011;499;42.648;23.270;2022-09-29T13:02:25;1.20;;;0.60;;
1020;SDS011;499;42.648;23.270;2022-09-29T13:05:15;1.77;;;0.60;;
1020;SDS011;499;42.648;23.270;2022-09-29T13:08:18;1.17;;;0.50;;
1020;SDS011;499;42.648;23.270;2022-09-29T13:11:03;1.10;;;0.50;;
1020;SDS011;499;42.648;23.270;2022-09-29T13:19:46;0.90;;;0.30;;
1020;SDS011;499;42.648;23.270;2022-09-29T13:25:52;2.17;;;0.67;;
1020;SDS011;499;42.648;23.270;2022-09-29T13:28:28;1.20;;;0.60;;
1020;SDS011;499;42.648;23.270;2022-09-29T13:30:57;0.90;;;0.40;;
1020;SDS011;499;42.648;23.270;2022-09-29T13:33:30;1.00;;;0.50;;
1020;SDS011;499;42.648;23.270;2022-09-29T13:35:59;1.20;;;0.60;;
1020;SDS011;499;42.648;23.270;2022-09-29T13:38:27;1.00;;;0.50;;
1020;SDS011;499;42.648;23.270;2022-09-29T13:41:09;1.20;;;0.53;;
1020;SDS011;499;42.648;23.270;2022-09-29T13:43:42;1.23;;;0.67;;
1020;SDS011;499;42.648;23.270;2022-09-29T13:46:35;1.00;;;0.50;;
1020;SDS011;499;42.648;23.270;2022-09-29T13:49:13;1.20;;;0.60;;
1020;SDS011;499;42.648;23.270;2022-09-29T13:51:59;0.90;;;0.40;;
1020;SDS011;499;42.648;23.270;2022-09-29T13:54:37;1.23;;;0.50;;
1020;SDS011;499;42.648;23.270;2022-09-29T14:00:00;1.70;;;1.60;;
1020;SDS011;499;42.648;23.270;2022-09-29T14:02:45;1.27;;;0.53;;
1020;SDS011;499;42.648;23.270;2022-09-29T14:08:37;1.50;;;0.80;;
1020;SDS011;499;42.648;23.270;2022-09-29T14:11:13;1.60;;;0.60;;
1020;SDS011;499;42.648;23.270;2022-09-29T14:13:48;1.17;;;0.70;;
1020;SDS011;499;42.648;23.270;2022-09-29T14:25:27;1.00;;;0.60;;
1020;SDS011;499;42.648;23.270;2022-09-29T14:28:15;1.30;;;0.70;;
1020;SDS011;499;42.648;23.270;2022-09-29T14:30:47;1.20;;;0.50;;
1020;SDS011;499;42.648;23.270;2022-09-29T14:33:17;1.90;;;0.80;;
1020;SDS011;499;42.648;23.270;2022-09-29T14:35:48;1.40;;;0.87;;
1020;SDS011;499;42.648;23.270;2022-09-29T14:38:26;1.43;;;0.77;;
1020;SDS011;499;42.648;23.270;2022-09-29T14:40:59;1.27;;;0.70;;
1020;SDS011;499;42.648;23.270;2022-09-29T14:43:35;1.30;;;0.90;;
1020;SDS011;499;42.648;23.270;2022-09-29T14:52:42;1.00;;;0.50;;
1020;SDS011;499;42.648;23.270;2022-09-29T14:55:20;1.37;;;0.93;;
1020;SDS011;499;42.648;23.270;2022-09-29T14:58:03;1.47;;;0.77;;
1020;SDS011;499;42.648;23.270;2022-09-29T15:03:36;1.20;;;0.70;;
1020;SDS011;499;42.648;23.270;2022-09-29T15:06:11;1.07;;;0.80;;
1020;SDS011;499;42.648;23.270;2022-09-29T15:08:40;1.13;;;0.83;;
1020;SDS011;499;42.648;23.270;2022-09-29T15:11:30;1.10;;;0.70;;
1020;SDS011;499;42.648;23.270;2022-09-29T15:14:15;1.63;;;0.67;;
1020;SDS011;499;42.648;23.270;2022-09-29T15:16:48;1.60;;;0.90;;
1020;SDS011;499;42.648;23.270;2022-09-29T15:19:34;1.13;;;0.70;;
1020;SDS011;499;42.648;23.270;2022-09-29T15:22:23;1.00;;;0.60;;
1020;SDS011;499;42.648;23.270;2022-09-29T15:25:20;1.33;;;0.80;;
1020;SDS011;499;42.648;23.270;2022-09-29T15:27:52;1.27;;;0.70;;
1020;SDS011;499;42.648;23.270;2022-09-29T15:30:23;1.30;;;0.90;;
1020;SDS011;499;42.648;23.270;2022-09-29T15:32:51;1.47;;;0.70;;
1020;SDS011;499;42.648;23.270;2022-09-29T15:35:20;1.00;;;0.70;;
1020;SDS011;499;42.648;23.270;2022-09-29T15:37:56;1.00;;;0.80;;
1020;SDS011;499;42.648;23.270;2022-09-29T15:40:38;1.30;;;1.03;;
1020;SDS011;499;42.648;23.270;2022-09-29T15:43:17;1.67;;;1.17;;
1020;SDS011;499;42.648;23.270;2022-09-29T15:45:52;1.30;;;0.97;;
1020;SDS011;499;42.648;23.270;2022-09-29T15:48:23;1.33;;;0.90;;
1020;SDS011;499;42.648;23.270;2022-09-29T15:50:50;1.17;;;0.70;;
1020;SDS011;499;42.648;23.270;2022-09-29T15:53:20;1.50;;;0.83;;
1020;SDS011;499;42.648;23.270;2022-09-29T15:55:48;1.67;;;0.90;;
1020;SDS011;499;42.648;23.270;2022-09-29T16:01:13;0.87;;;0.50;;
1020;SDS011;499;42.648;23.270;2022-09-29T16:03:43;1.50;;;0.97;;
1020;SDS011;499;42.648;23.270;2022-09-29T16:06:23;1.20;;;0.87;;
1020;SDS011;499;42.648;23.270;2022-09-29T16:08:54;1.27;;;0.80;;
1020;SDS011;499;42.648;23.270;2022-09-29T16:11:25;1.00;;;0.60;;
1020;SDS011;499;42.648;23.270;2022-09-29T16:13:58;1.20;;;0.70;;
1020;SDS011;499;42.648;23.270;2022-09-29T16:16:31;1.73;;;0.80;;
1020;SDS011;499;42.648;23.270;2022-09-29T16:19:02;1.30;;;0.80;;
1020;SDS011;499;42.648;23.270;2022-09-29T16:21:35;1.30;;;0.90;;
1020;SDS011;499;42.648;23.270;2022-09-29T16:24:05;1.03;;;0.63;;
1020;SDS011;499;42.648;23.270;2022-09-29T16:26:37;1.30;;;0.93;;
1020;SDS011;499;42.648;23.270;2022-09-29T16:29:27;0.90;;;0.60;;
1020;SDS011;499;42.648;23.270;2022-09-29T16:31:57;1.17;;;0.80;;
1020;SDS011;499;42.648;23.270;2022-09-29T16:34:27;1.80;;;1.50;;
1020;SDS011;499;42.648;23.270;2022-09-29T16:36:57;1.30;;;0.80;;
1020;SDS011;499;42.648;23.270;2022-09-29T16:39:26;1.17;;;0.90;;